sensor_id;sensor_type;location;lat;lon;timestamp;P1;durP1;ratioP1;P2;durP2;ratioP2
35909;SDS011;22004;49.120;-0.200;2024-03-23T00:54:18;20.15;;;3.55;;
35909;SDS011;22004;49.120;-0.200;2024-03-23T00:56:43;23.45;;;4.07;;
35909;SDS011;22004;49.120;-0.200;2024-03-23T00:59:08;21.47;;;3.67;;
35909;SDS011;22004;49.120;-0.200;2024-03-23T01:01:33;17.00;;;3.50;;
35909;SDS011;22004;49.120;-0.200;2024-03-23T01:03:59;16.67;;;3.77;;
35909;SDS011;22004;49.120;-0.200;2024-03-23T01:06:24;21.15;;;3.55;;
35909;SDS011;22004;49.120;-0.200;2024-03-23T01:08:49;20.43;;;3.70;;
35909;SDS011;22004;49.120;-0.200;2024-03-23T01:11:14;17.33;;;3.50;;
35909;SDS011;22004;49.120;-0.200;2024-03-23T01:13:40;24.97;;;4.00;;
35909;SDS011;22004;49.120;-0.200;2024-03-23T01:16:05;17.03;;;4.17;;
35909;SDS011;22004;49.120;-0.200;2024-03-23T01:18:30;15.13;;;3.70;;
35909;SDS011;22004;49.120;-0.200;2024-03-23T01:20:55;16.10;;;3.03;;
35909;SDS011;22004;49.120;-0.200;2024-03-23T01:23:21;17.30;;;3.07;;
35909;SDS011;22004;49.120;-0.200;2024-03-23T01:25:55;20.07;;;3.00;;
35909;SDS011;22004;49.120;-0.200;2024-03-23T01:28:20;23.00;;;3.88;;
35909;SDS011;22004;49.120;-0.200;2024-03-23T01:30:46;20.67;;;3.28;;
35909;SDS011;22004;49.120;-0.200;2024-03-23T01:33:11;19.25;;;3.42;;
35909;SDS011;22004;49.120;-0.200;2024-03-23T01:35:37;17.10;;;3.72;;
35909;SDS011;22004;49.120;-0.200;2024-03-23T01:38:02;14.50;;;3.25;;
35909;SDS011;22004;49.120;-0.200;2024-03-23T01:40:27;22.33;;;3.53;;
35909;SDS011;22004;49.120;-0.200;2024-03-23T01:43:03;22.63;;;3.97;;
35909;SDS011;22004;49.120;-0.200;2024-03-23T01:45:28;13.77;;;3.28;;
35909;SDS011;22004;49.120;-0.200;2024-03-23T01:47:54;16.77;;;3.50;;
35909;SDS011;22004;49.120;-0.200;2024-03-23T01:50:20;18.50;;;2.80;;
35909;SDS011;22004;49.120;-0.200;2024-03-23T01:52:46;20.27;;;3.15;;
35909;SDS011;22004;49.120;-0.200;2024-03-23T01:55:11;18.80;;;2.88;;
35909;SDS011;22004;49.120;-0.200;2024-03-23T01:57:37;18.65;;;3.65;;
35909;SDS011;22004;49.120;-0.200;2024-03-23T02:00:02;13.93;;;3.07;;
35909;SDS011;22004;49.120;-0.200;2024-03-23T02:02:28;15.45;;;3.22;;
35909;SDS011;22004;49.120;-0.200;2024-03-23T02:04:53;18.07;;;3.00;;
35909;SDS011;22004;49.120;-0.200;2024-03-23T02:07:18;18.17;;;3.10;;
35909;SDS011;22004;49.120;-0.200;2024-03-23T02:09:43;16.63;;;3.53;;
35909;SDS011;22004;49.120;-0.200;2024-03-23T02:12:08;15.43;;;3.40;;
35909;SDS011;22004;49.120;-0.200;2024-03-23T02:14:34;15.33;;;3.30;;
35909;SDS011;22004;49.120;-0.200;2024-03-23T02:16:59;13.33;;;2.80;;
35909;SDS011;22004;49.120;-0.200;2024-03-23T02:19:24;16.80;;;3.63;;
35909;SDS011;22004;49.120;-0.200;2024-03-23T02:21:49;19.20;;;3.67;;
35909;SDS011;22004;49.120;-0.200;2024-03-23T02:24:15;18.43;;;3.77;;
35909;SDS011;22004;49.120;-0.200;2024-03-23T02:26:40;19.67;;;3.70;;
35909;SDS011;22004;49.120;-0.200;2024-03-23T02:29:05;14.63;;;3.10;;
35909;SDS011;22004;49.120;-0.200;2024-03-23T02:31:30;15.70;;;3.80;;
35909;SDS011;22004;49.120;-0.200;2024-03-23T02:33:56;15.10;;;3.17;;
35909;SDS011;22004;49.120;-0.200;2024-03-23T02:36:21;15.07;;;3.70;;
35909;SDS011;22004;49.120;-0.200;2024-03-23T02:38:46;18.63;;;3.35;;
35909;SDS011;22004;49.120;-0.200;2024-03-23T02:41:11;17.70;;;3.85;;
35909;SDS011;22004;49.120;-0.200;2024-03-23T02:43:37;16.60;;;3.33;;
35909;SDS011;22004;49.120;-0.200;2024-03-23T02:46:02;18.58;;;3.28;;
35909;SDS011;22004;49.120;-0.200;2024-03-23T02:48:29;12.27;;;2.67;;
35909;SDS011;22004;49.120;-0.200;2024-03-23T02:50:54;19.50;;;2.90;;
35909;SDS011;22004;49.120;-0.200;2024-03-23T02:53:19;17.63;;;3.20;;
35909;SDS011;22004;49.120;-0.200;2024-03-23T02:55:45;19.70;;;3.10;;
35909;SDS011;22004;49.120;-0.200;2024-03-23T02:58:10;12.63;;;2.63;;
35909;SDS011;22004;49.120;-0.200;2024-03-23T03:00:35;15.80;;;2.90;;
35909;SDS011;22004;49.120;-0.200;2024-03-23T03:03:00;13.87;;;3.13;;
35909;SDS011;22004;49.120;-0.200;2024-03-23T03:05:25;14.40;;;2.70;;
35909;SDS011;22004;49.120;-0.200;2024-03-23T03:07:51;19.67;;;3.63;;
35909;SDS011;22004;49.120;-0.200;2024-03-23T03:10:16;11.80;;;2.47;;
35909;SDS011;22004;49.120;-0.200;2024-03-23T03:12:41;16.63;;;2.77;;
35909;SDS011;22004;49.120;-0.200;2024-03-23T03:15:07;17.52;;;2.72;;
35909;SDS011;22004;49.120;-0.200;2024-03-23T03:17:34;19.02;;;3.15;;
35909;SDS011;22004;49.120;-0.200;2024-03-23T03:19:59;18.63;;;3.42;;
35909;SDS011;22004;49.120;-0.200;2024-03-23T03:22:24;13.75;;;2.58;;
35909;SDS011;22004;49.120;-0.200;2024-03-23T03:24:50;11.95;;;2.55;;
35909;SDS011;22004;49.120;-0.200;2024-03-23T03:27:15;12.93;;;3.00;;
35909;SDS011;22004;49.120;-0.200;2024-03-23T03:29:40;18.43;;;3.13;;
35909;SDS011;22004;49.120;-0.200;2024-03-23T03:32:05;12.53;;;3.00;;
35909;SDS011;22004;49.120;-0.200;2024-03-23T03:34:31;12.20;;;2.50;;
35909;SDS011;22004;49.120;-0.200;2024-03-23T03:36:56;20.45;;;2.92;;
35909;SDS011;22004;49.120;-0.200;2024-03-23T03:39:22;15.07;;;2.90;;
35909;SDS011;22004;49.120;-0.200;2024-03-23T03:41:47;14.13;;;2.80;;
35909;SDS011;22004;49.120;-0.200;2024-03-23T03:44:13;16.55;;;3.25;;
35909;SDS011;22004;49.120;-0.200;2024-03-23T03:46:38;17.70;;;2.60;;
35909;SDS011;22004;49.120;-0.200;2024-03-23T03:49:03;14.83;;;2.77;;
35909;SDS011;22004;49.120;-0.200;2024-03-23T03:51:28;14.40;;;2.80;;
35909;SDS011;22004;49.120;-0.200;2024-03-23T03:53:54;12.03;;;2.43;;
35909;SDS011;22004;49.120;-0.200;2024-03-23T03:56:19;11.00;;;2.90;;
35909;SDS011;22004;49.120;-0.200;2024-03-23T03:58:44;13.63;;;2.50;;
35909;SDS011;22004;49.120;-0.200;2024-03-23T04:01:09;9.60;;;1.77;;
35909;SDS011;22004;49.120;-0.200;2024-03-23T04:03:35;15.45;;;2.47;;
35909;SDS011;22004;49.120;-0.200;2024-03-23T04:06:00;13.77;;;3.33;;
35909;SDS011;22004;49.120;-0.200;2024-03-23T04:08:25;10.20;;;2.60;;
35909;SDS011;22004;49.120;-0.200;2024-03-23T04:10:51;15.67;;;2.50;;
35909;SDS011;22004;49.120;-0.200;2024-03-23T04:13:16;18.37;;;3.23;;
35909;SDS011;22004;49.120;-0.200;2024-03-23T04:15:41;14.57;;;2.80;;
35909;SDS011;22004;49.120;-0.200;2024-03-23T04:18:07;10.40;;;2.10;;
35909;SDS011;22004;49.120;-0.200;2024-03-23T04:20:32;11.27;;;2.30;;
35909;SDS011;22004;49.120;-0.200;2024-03-23T04:23:00;13.50;;;2.28;;
35909;SDS011;22004;49.120;-0.200;2024-03-23T04:25:26;13.20;;;3.17;;
35909;SDS011;22004;49.120;-0.200;2024-03-23T04:27:51;9.50;;;2.35;;
35909;SDS011;22004;49.120;-0.200;2024-03-23T04:30:16;12.17;;;2.30;;
35909;SDS011;22004;49.120;-0.200;2024-03-23T04:32:42;13.57;;;2.72;;
35909;SDS011;22004;49.120;-0.200;2024-03-23T04:35:08;11.98;;;2.47;;
35909;SDS011;22004;49.120;-0.200;2024-03-23T04:37:36;13.10;;;2.30;;
35909;SDS011;22004;49.120;-0.200;2024-03-23T04:40:02;12.85;;;2.03;;
35909;SDS011;22004;49.120;-0.200;2024-03-23T04:42:28;10.70;;;2.47;;
35909;SDS011;22004;49.120;-0.200;2024-03-23T04:44:53;10.45;;;2.17;;
35909;SDS011;22004;49.120;-0.200;2024-03-23T04:47:19;5.67;;;1.50;;
35909;SDS011;22004;49.120;-0.200;2024-03-23T04:49:44;12.25;;;2.00;;
35909;SDS011;22004;49.120;-0.200;2024-03-23T04:52:09;13.00;;;2.10;;
35909;SDS011;22004;49.120;-0.200;2024-03-23T04:54:34;11.57;;;2.67;;
35909;SDS011;22004;49.120;-0.200;2024-03-23T04:57:00;12.93;;;2.30;;
35909;SDS011;22004;49.120;-0.200;2024-03-23T04:59:25;13.32;;;2.53;;
35909;SDS011;22004;49.120;-0.200;2024-03-23T05:01:50;10.20;;;2.30;;
35909;SDS011;22004;49.120;-0.200;2024-03-23T05:04:15;11.18;;;2.50;;
35909;SDS011;22004;49.120;-0.200;2024-03-23T05:06:41;10.27;;;2.07;;
35909;SDS011;22004;49.120;-0.200;2024-03-23T05:09:06;10.17;;;2.03;;
35909;SDS011;22004;49.120;-0.200;2024-03-23T05:11:32;7.50;;;2.17;;
35909;SDS011;22004;49.120;-0.200;2024-03-23T05:13:57;8.95;;;1.90;;
35909;SDS011;22004;49.120;-0.200;2024-03-23T05:16:23;10.23;;;2.00;;
35909;SDS011;22004;49.120;-0.200;2024-03-23T05:18:48;15.93;;;2.47;;
35909;SDS011;22004;49.120;-0.200;2024-03-23T05:21:13;7.93;;;1.97;;
35909;SDS011;22004;49.120;-0.200;2024-03-23T05:23:38;9.80;;;2.73;;
35909;SDS011;22004;49.120;-0.200;2024-03-23T05:26:03;10.63;;;2.00;;
35909;SDS011;22004;49.120;-0.200;2024-03-23T05:28:29;9.50;;;1.88;;
35909;SDS011;22004;49.120;-0.200;2024-03-23T05:30:55;8.90;;;1.77;;
35909;SDS011;22004;49.120;-0.200;2024-03-23T05:33:20;5.75;;;1.30;;
35909;SDS011;22004;49.120;-0.200;2024-03-23T05:35:46;6.53;;;1.50;;
35909;SDS011;22004;49.120;-0.200;2024-03-23T05:38:12;10.05;;;2.30;;
35909;SDS011;22004;49.120;-0.200;2024-03-23T05:40:38;12.48;;;2.63;;
35909;SDS011;22004;49.120;-0.200;2024-03-23T05:43:05;8.60;;;1.52;;
35909;SDS011;22004;49.120;-0.200;2024-03-23T05:45:30;8.50;;;1.50;;
35909;SDS011;22004;49.120;-0.200;2024-03-23T05:47:56;13.57;;;2.10;;
35909;SDS011;22004;49.120;-0.200;2024-03-23T05:50:22;9.57;;;1.80;;
35909;SDS011;22004;49.120;-0.200;2024-03-23T05:52:47;12.02;;;2.05;;
35909;SDS011;22004;49.120;-0.200;2024-03-23T05:55:12;8.43;;;2.00;;
35909;SDS011;22004;49.120;-0.200;2024-03-23T05:57:38;9.87;;;1.93;;
35909;SDS011;22004;49.120;-0.200;2024-03-23T06:00:03;7.77;;;1.50;;
35909;SDS011;22004;49.120;-0.200;2024-03-23T06:02:29;7.22;;;1.30;;
35909;SDS011;22004;49.120;-0.200;2024-03-23T06:04:54;9.52;;;1.95;;
35909;SDS011;22004;49.120;-0.200;2024-03-23T06:07:19;11.50;;;1.63;;
35909;SDS011;22004;49.120;-0.200;2024-03-23T06:09:44;7.90;;;1.63;;
35909;SDS011;22004;49.120;-0.200;2024-03-23T06:12:10;9.32;;;1.67;;
35909;SDS011;22004;49.120;-0.200;2024-03-23T06:14:35;10.37;;;1.60;;
35909;SDS011;22004;49.120;-0.200;2024-03-23T06:17:00;9.53;;;1.60;;
35909;SDS011;22004;49.120;-0.200;2024-03-23T06:19:26;9.05;;;1.63;;
35909;SDS011;22004;49.120;-0.200;2024-03-23T06:21:52;10.07;;;2.10;;
35909;SDS011;22004;49.120;-0.200;2024-03-23T06:24:18;8.43;;;1.67;;
35909;SDS011;22004;49.120;-0.200;2024-03-23T06:26:43;10.63;;;2.07;;
35909;SDS011;22004;49.120;-0.200;2024-03-23T06:29:08;8.75;;;2.30;;
35909;SDS011;22004;49.120;-0.200;2024-03-23T06:31:34;11.85;;;2.75;;
35909;SDS011;22004;49.120;-0.200;2024-03-23T06:33:59;10.63;;;2.28;;
35909;SDS011;22004;49.120;-0.200;2024-03-23T06:36:24;11.67;;;2.30;;
35909;SDS011;22004;49.120;-0.200;2024-03-23T06:38:50;10.50;;;1.77;;
35909;SDS011;22004;49.120;-0.200;2024-03-23T06:41:15;18.33;;;2.35;;
35909;SDS011;22004;49.120;-0.200;2024-03-23T06:43:40;7.47;;;1.77;;
35909;SDS011;22004;49.120;-0.200;2024-03-23T06:46:05;9.23;;;2.17;;
35909;SDS011;22004;49.120;-0.200;2024-03-23T06:48:31;13.23;;;2.73;;
35909;SDS011;22004;49.120;-0.200;2024-03-23T06:50:56;13.02;;;2.13;;
35909;SDS011;22004;49.120;-0.200;2024-03-23T06:53:22;14.13;;;2.13;;
35909;SDS011;22004;49.120;-0.200;2024-03-23T06:55:53;11.63;;;1.95;;
35909;SDS011;22004;49.120;-0.200;2024-03-23T06:58:24;14.00;;;2.28;;
35909;SDS011;22004;49.120;-0.200;2024-03-23T07:00:49;7.70;;;1.58;;
35909;SDS011;22004;49.120;-0.200;2024-03-23T07:03:15;9.32;;;2.15;;
35909;SDS011;22004;49.120;-0.200;2024-03-23T07:05:40;14.23;;;2.33;;
35909;SDS011;22004;49.120;-0.200;2024-03-23T07:08:06;11.40;;;2.45;;
35909;SDS011;22004;49.120;-0.200;2024-03-23T07:10:32;15.32;;;2.25;;
35909;SDS011;22004;49.120;-0.200;2024-03-23T07:12:57;7.67;;;1.77;;
35909;SDS011;22004;49.120;-0.200;2024-03-23T07:15:22;10.83;;;2.10;;
35909;SDS011;22004;49.120;-0.200;2024-03-23T07:17:47;9.20;;;2.10;;
35909;SDS011;22004;49.120;-0.200;2024-03-23T07:20:13;17.67;;;2.97;;
35909;SDS011;22004;49.120;-0.200;2024-03-23T07:22:38;13.00;;;2.42;;
35909;SDS011;22004;49.120;-0.200;2024-03-23T07:25:04;15.70;;;2.23;;
35909;SDS011;22004;49.120;-0.200;2024-03-23T07:27:30;14.00;;;2.13;;
35909;SDS011;22004;49.120;-0.200;2024-03-23T07:29:55;19.53;;;3.20;;
35909;SDS011;22004;49.120;-0.200;2024-03-23T07:32:20;14.70;;;2.27;;
35909;SDS011;22004;49.120;-0.200;2024-03-23T07:34:45;16.40;;;2.72;;
35909;SDS011;22004;49.120;-0.200;2024-03-23T07:37:11;13.50;;;2.50;;
35909;SDS011;22004;49.120;-0.200;2024-03-23T07:39:36;13.23;;;2.80;;
35909;SDS011;22004;49.120;-0.200;2024-03-23T07:42:02;11.25;;;2.00;;
35909;SDS011;22004;49.120;-0.200;2024-03-23T07:44:27;11.90;;;2.20;;
35909;SDS011;22004;49.120;-0.200;2024-03-23T07:46:52;15.90;;;3.20;;
35909;SDS011;22004;49.120;-0.200;2024-03-23T07:49:18;11.47;;;2.60;;
35909;SDS011;22004;49.120;-0.200;2024-03-23T07:51:43;10.65;;;2.67;;
35909;SDS011;22004;49.120;-0.200;2024-03-23T07:54:09;9.52;;;1.90;;
35909;SDS011;22004;49.120;-0.200;2024-03-23T07:56:34;15.80;;;2.90;;
35909;SDS011;22004;49.120;-0.200;2024-03-23T07:59:00;19.85;;;2.40;;
35909;SDS011;22004;49.120;-0.200;2024-03-23T08:01:25;14.17;;;2.77;;
35909;SDS011;22004;49.120;-0.200;2024-03-23T08:03:50;16.30;;;2.05;;
35909;SDS011;22004;49.120;-0.200;2024-03-23T08:06:16;10.33;;;2.70;;
35909;SDS011;22004;49.120;-0.200;2024-03-23T08:08:43;16.80;;;2.42;;
35909;SDS011;22004;49.120;-0.200;2024-03-23T08:11:08;17.45;;;3.53;;
35909;SDS011;22004;49.120;-0.200;2024-03-23T08:13:34;21.75;;;3.15;;
35909;SDS011;22004;49.120;-0.200;2024-03-23T08:16:00;18.25;;;3.13;;
35909;SDS011;22004;49.120;-0.200;2024-03-23T08:18:25;16.50;;;2.40;;
35909;SDS011;22004;49.120;-0.200;2024-03-23T08:23:23;10.43;;;1.85;;
35909;SDS011;22004;49.120;-0.200;2024-03-23T08:25:48;15.15;;;2.65;;
35909;SDS011;22004;49.120;-0.200;2024-03-23T08:28:13;11.77;;;2.17;;
35909;SDS011;22004;49.120;-0.200;2024-03-23T08:30:38;8.83;;;2.13;;
35909;SDS011;22004;49.120;-0.200;2024-03-23T08:33:03;11.40;;;2.37;;
35909;SDS011;22004;49.120;-0.200;2024-03-23T08:35:29;11.07;;;2.33;;
35909;SDS011;22004;49.120;-0.200;2024-03-23T08:37:54;11.07;;;1.97;;
35909;SDS011;22004;49.120;-0.200;2024-03-23T08:40:19;11.43;;;2.10;;
35909;SDS011;22004;49.120;-0.200;2024-03-23T08:42:45;17.60;;;2.93;;
35909;SDS011;22004;49.120;-0.200;2024-03-23T08:45:10;13.53;;;2.47;;
35909;SDS011;22004;49.120;-0.200;2024-03-23T08:47:35;13.90;;;2.87;;
35909;SDS011;22004;49.120;-0.200;2024-03-23T08:50:01;14.00;;;2.58;;
35909;SDS011;22004;49.120;-0.200;2024-03-23T08:52:26;12.35;;;2.25;;
35909;SDS011;22004;49.120;-0.200;2024-03-23T08:54:53;12.23;;;2.17;;
35909;SDS011;22004;49.120;-0.200;2024-03-23T08:57:18;12.73;;;2.63;;
35909;SDS011;22004;49.120;-0.200;2024-03-23T08:59:44;14.57;;;2.63;;
35909;SDS011;22004;49.120;-0.200;2024-03-23T09:02:09;13.57;;;2.40;;
35909;SDS011;22004;49.120;-0.200;2024-03-23T09:04:34;12.37;;;2.57;;
35909;SDS011;22004;49.120;-0.200;2024-03-23T09:07:00;14.10;;;2.05;;
35909;SDS011;22004;49.120;-0.200;2024-03-23T09:09:25;12.05;;;2.08;;
35909;SDS011;22004;49.120;-0.200;2024-03-23T09:11:50;10.93;;;2.20;;
35909;SDS011;22004;49.120;-0.200;2024-03-23T09:14:15;14.53;;;2.80;;
35909;SDS011;22004;49.120;-0.200;2024-03-23T09:16:41;13.33;;;2.63;;
35909;SDS011;22004;49.120;-0.200;2024-03-23T09:19:06;17.33;;;2.77;;
35909;SDS011;22004;49.120;-0.200;2024-03-23T09:21:31;11.40;;;2.00;;
35909;SDS011;22004;49.120;-0.200;2024-03-23T09:23:56;15.60;;;2.60;;
35909;SDS011;22004;49.120;-0.200;2024-03-23T09:26:22;14.63;;;2.03;;
35909;SDS011;22004;49.120;-0.200;2024-03-23T09:28:50;16.80;;;2.10;;
35909;SDS011;22004;49.120;-0.200;2024-03-23T09:31:15;18.98;;;2.33;;
35909;SDS011;22004;49.120;-0.200;2024-03-23T09:33:40;6.70;;;1.73;;
35909;SDS011;22004;49.120;-0.200;2024-03-23T09:36:06;23.90;;;3.00;;
35909;SDS011;22004;49.120;-0.200;2024-03-23T09:38:32;14.90;;;2.40;;
35909;SDS011;22004;49.120;-0.200;2024-03-23T09:40:57;17.58;;;3.25;;
35909;SDS011;22004;49.120;-0.200;2024-03-23T09:43:23;13.55;;;2.83;;
35909;SDS011;22004;49.120;-0.200;2024-03-23T09:45:48;16.60;;;3.07;;
35909;SDS011;22004;49.120;-0.200;2024-03-23T09:48:13;17.70;;;3.33;;
35909;SDS011;22004;49.120;-0.200;2024-03-23T09:50:39;14.57;;;2.60;;
35909;SDS011;22004;49.120;-0.200;2024-03-23T09:53:08;19.27;;;2.45;;
35909;SDS011;22004;49.120;-0.200;2024-03-23T09:55:34;11.70;;;2.10;;
35909;SDS011;22004;49.120;-0.200;2024-03-23T09:58:00;11.77;;;2.30;;
35909;SDS011;22004;49.120;-0.200;2024-03-23T10:00:25;10.97;;;2.00;;
35909;SDS011;22004;49.120;-0.200;2024-03-23T10:02:51;15.15;;;2.55;;
35909;SDS011;22004;49.120;-0.200;2024-03-23T10:05:19;15.13;;;2.10;;
35909;SDS011;22004;49.120;-0.200;2024-03-23T10:07:45;10.70;;;1.80;;
35909;SDS011;22004;49.120;-0.200;2024-03-23T10:10:11;17.30;;;3.17;;
35909;SDS011;22004;49.120;-0.200;2024-03-23T10:12:40;15.57;;;2.80;;
35909;SDS011;22004;49.120;-0.200;2024-03-23T10:15:13;8.38;;;2.28;;
35909;SDS011;22004;49.120;-0.200;2024-03-23T10:17:40;14.63;;;2.53;;
35909;SDS011;22004;49.120;-0.200;2024-03-23T10:20:05;15.97;;;2.30;;
35909;SDS011;22004;49.120;-0.200;2024-03-23T10:22:36;18.33;;;2.70;;
35909;SDS011;22004;49.120;-0.200;2024-03-23T10:25:09;13.40;;;2.22;;
35909;SDS011;22004;49.120;-0.200;2024-03-23T10:27:35;10.27;;;1.63;;
35909;SDS011;22004;49.120;-0.200;2024-03-23T10:30:10;11.07;;;2.42;;
35909;SDS011;22004;49.120;-0.200;2024-03-23T10:37:26;13.02;;;2.47;;
35909;SDS011;22004;49.120;-0.200;2024-03-23T10:39:51;15.73;;;1.60;;
35909;SDS011;22004;49.120;-0.200;2024-03-23T10:42:17;11.23;;;1.60;;
35909;SDS011;22004;49.120;-0.200;2024-03-23T10:44:43;7.95;;;1.50;;
35909;SDS011;22004;49.120;-0.200;2024-03-23T10:47:08;8.67;;;1.30;;
35909;SDS011;22004;49.120;-0.200;2024-03-23T10:49:35;10.73;;;1.50;;
35909;SDS011;22004;49.120;-0.200;2024-03-23T10:52:04;8.60;;;1.73;;
35909;SDS011;22004;49.120;-0.200;2024-03-23T10:54:29;6.18;;;1.50;;
35909;SDS011;22004;49.120;-0.200;2024-03-23T10:57:17;9.20;;;1.75;;
35909;SDS011;22004;49.120;-0.200;2024-03-23T10:59:40;7.82;;;1.23;;
35909;SDS011;22004;49.120;-0.200;2024-03-23T11:02:06;7.32;;;1.52;;
35909;SDS011;22004;49.120;-0.200;2024-03-23T11:04:36;13.88;;;2.30;;
35909;SDS011;22004;49.120;-0.200;2024-03-23T11:09:48;11.88;;;1.63;;
35909;SDS011;22004;49.120;-0.200;2024-03-23T11:14:48;12.82;;;1.88;;
35909;SDS011;22004;49.120;-0.200;2024-03-23T11:17:17;18.42;;;2.10;;
35909;SDS011;22004;49.120;-0.200;2024-03-23T11:19:43;16.00;;;2.40;;
35909;SDS011;22004;49.120;-0.200;2024-03-23T11:22:08;8.65;;;1.60;;
35909;SDS011;22004;49.120;-0.200;2024-03-23T11:24:33;13.93;;;2.17;;
35909;SDS011;22004;49.120;-0.200;2024-03-23T11:26:59;15.50;;;2.45;;
35909;SDS011;22004;49.120;-0.200;2024-03-23T11:29:26;8.30;;;2.10;;
35909;SDS011;22004;49.120;-0.200;2024-03-23T11:31:52;10.10;;;2.17;;
35909;SDS011;22004;49.120;-0.200;2024-03-23T11:34:18;8.30;;;1.80;;
35909;SDS011;22004;49.120;-0.200;2024-03-23T11:36:44;7.70;;;1.80;;
35909;SDS011;22004;49.120;-0.200;2024-03-23T11:39:15;12.20;;;2.45;;
35909;SDS011;22004;49.120;-0.200;2024-03-23T11:41:47;17.33;;;2.50;;
35909;SDS011;22004;49.120;-0.200;2024-03-23T11:46:41;17.08;;;1.80;;
35909;SDS011;22004;49.120;-0.200;2024-03-23T11:49:06;12.10;;;2.13;;
35909;SDS011;22004;49.120;-0.200;2024-03-23T11:51:31;10.30;;;2.40;;
35909;SDS011;22004;49.120;-0.200;2024-03-23T11:54:07;5.75;;;1.33;;
35909;SDS011;22004;49.120;-0.200;2024-03-23T11:56:32;13.45;;;2.30;;
35909;SDS011;22004;49.120;-0.200;2024-03-23T11:58:57;11.50;;;1.87;;
35909;SDS011;22004;49.120;-0.200;2024-03-23T12:01:22;8.77;;;1.67;;
35909;SDS011;22004;49.120;-0.200;2024-03-23T12:03:48;11.07;;;2.10;;
35909;SDS011;22004;49.120;-0.200;2024-03-23T12:06:13;7.70;;;1.92;;
35909;SDS011;22004;49.120;-0.200;2024-03-23T12:08:44;14.93;;;1.88;;
35909;SDS011;22004;49.120;-0.200;2024-03-23T12:11:10;11.40;;;1.90;;
35909;SDS011;22004;49.120;-0.200;2024-03-23T12:13:36;9.35;;;1.83;;
35909;SDS011;22004;49.120;-0.200;2024-03-23T12:16:17;13.75;;;3.20;;
35909;SDS011;22004;49.120;-0.200;2024-03-23T12:18:44;13.95;;;2.17;;
35909;SDS011;22004;49.120;-0.200;2024-03-23T12:21:09;9.55;;;1.80;;
35909;SDS011;22004;49.120;-0.200;2024-03-23T12:23:35;15.43;;;2.17;;
35909;SDS011;22004;49.120;-0.200;2024-03-23T12:26:00;9.63;;;1.88;;
35909;SDS011;22004;49.120;-0.200;2024-03-23T12:28:25;8.50;;;1.67;;
35909;SDS011;22004;49.120;-0.200;2024-03-23T12:30:51;10.57;;;2.63;;
35909;SDS011;22004;49.120;-0.200;2024-03-23T12:33:17;8.63;;;1.63;;
35909;SDS011;22004;49.120;-0.200;2024-03-23T12:35:42;10.48;;;1.67;;
35909;SDS011;22004;49.120;-0.200;2024-03-23T12:38:08;10.68;;;2.35;;
35909;SDS011;22004;49.120;-0.200;2024-03-23T12:40:33;10.55;;;1.67;;
35909;SDS011;22004;49.120;-0.200;2024-03-23T12:42:58;8.37;;;1.53;;
35909;SDS011;22004;49.120;-0.200;2024-03-23T12:45:23;11.77;;;2.20;;
35909;SDS011;22004;49.120;-0.200;2024-03-23T12:47:49;17.17;;;2.40;;
35909;SDS011;22004;49.120;-0.200;2024-03-23T12:50:20;15.57;;;3.00;;
35909;SDS011;22004;49.120;-0.200;2024-03-23T12:52:45;13.00;;;2.13;;
35909;SDS011;22004;49.120;-0.200;2024-03-23T12:55:11;8.73;;;1.88;;
35909;SDS011;22004;49.120;-0.200;2024-03-23T12:57:36;14.17;;;2.57;;
35909;SDS011;22004;49.120;-0.200;2024-03-23T13:00:02;12.77;;;2.45;;
35909;SDS011;22004;49.120;-0.200;2024-03-23T13:02:28;8.65;;;1.80;;
35909;SDS011;22004;49.120;-0.200;2024-03-23T13:04:53;6.37;;;1.50;;
35909;SDS011;22004;49.120;-0.200;2024-03-23T13:07:19;15.10;;;2.05;;
35909;SDS011;22004;49.120;-0.200;2024-03-23T13:09:44;12.27;;;1.88;;
35909;SDS011;22004;49.120;-0.200;2024-03-23T13:12:10;14.07;;;2.45;;
35909;SDS011;22004;49.120;-0.200;2024-03-23T13:14:37;14.30;;;1.80;;
35909;SDS011;22004;49.120;-0.200;2024-03-23T13:17:02;12.90;;;1.80;;
35909;SDS011;22004;49.120;-0.200;2024-03-23T13:19:28;10.68;;;1.75;;
35909;SDS011;22004;49.120;-0.200;2024-03-23T13:21:56;9.73;;;1.58;;
35909;SDS011;22004;49.120;-0.200;2024-03-23T13:24:22;14.75;;;1.88;;
35909;SDS011;22004;49.120;-0.200;2024-03-23T13:26:49;14.15;;;2.35;;
35909;SDS011;22004;49.120;-0.200;2024-03-23T13:29:14;11.02;;;1.92;;
35909;SDS011;22004;49.120;-0.200;2024-03-23T13:31:39;12.23;;;2.13;;
35909;SDS011;22004;49.120;-0.200;2024-03-23T13:34:04;8.63;;;2.07;;
35909;SDS011;22004;49.120;-0.200;2024-03-23T13:36:30;11.87;;;1.80;;
35909;SDS011;22004;49.120;-0.200;2024-03-23T13:38:55;6.77;;;1.63;;
35909;SDS011;22004;49.120;-0.200;2024-03-23T13:41:20;10.97;;;1.97;;
35909;SDS011;22004;49.120;-0.200;2024-03-23T13:43:45;15.17;;;1.80;;
35909;SDS011;22004;49.120;-0.200;2024-03-23T13:46:10;10.60;;;1.50;;
35909;SDS011;22004;49.120;-0.200;2024-03-23T13:48:36;6.97;;;1.40;;
35909;SDS011;22004;49.120;-0.200;2024-03-23T13:51:01;12.03;;;1.70;;
35909;SDS011;22004;49.120;-0.200;2024-03-23T13:53:27;10.18;;;1.63;;
35909;SDS011;22004;49.120;-0.200;2024-03-23T13:55:53;14.60;;;1.83;;
35909;SDS011;22004;49.120;-0.200;2024-03-23T13:58:18;7.05;;;1.50;;
35909;SDS011;22004;49.120;-0.200;2024-03-23T14:00:43;6.72;;;1.30;;
35909;SDS011;22004;49.120;-0.200;2024-03-23T14:03:12;5.72;;;1.23;;
35909;SDS011;22004;49.120;-0.200;2024-03-23T14:05:37;8.70;;;1.40;;
35909;SDS011;22004;49.120;-0.200;2024-03-23T14:08:08;8.68;;;1.50;;
35909;SDS011;22004;49.120;-0.200;2024-03-23T14:10:34;5.57;;;1.35;;
35909;SDS011;22004;49.120;-0.200;2024-03-23T14:13:00;7.88;;;1.50;;
35909;SDS011;22004;49.120;-0.200;2024-03-23T14:15:26;6.55;;;1.23;;
35909;SDS011;22004;49.120;-0.200;2024-03-23T14:17:51;18.80;;;2.70;;
35909;SDS011;22004;49.120;-0.200;2024-03-23T14:20:17;10.10;;;1.87;;
35909;SDS011;22004;49.120;-0.200;2024-03-23T14:22:42;7.60;;;1.90;;
35909;SDS011;22004;49.120;-0.200;2024-03-23T14:25:08;6.68;;;1.50;;
35909;SDS011;22004;49.120;-0.200;2024-03-23T14:27:34;15.98;;;2.00;;
35909;SDS011;22004;49.120;-0.200;2024-03-23T14:30:02;10.63;;;1.88;;
35909;SDS011;22004;49.120;-0.200;2024-03-23T14:32:28;13.15;;;1.80;;
35909;SDS011;22004;49.120;-0.200;2024-03-23T14:34:55;6.43;;;1.27;;
35909;SDS011;22004;49.120;-0.200;2024-03-23T14:37:21;3.70;;;0.90;;
35909;SDS011;22004;49.120;-0.200;2024-03-23T14:39:46;7.07;;;1.20;;
35909;SDS011;22004;49.120;-0.200;2024-03-23T14:42:11;9.33;;;1.47;;
35909;SDS011;22004;49.120;-0.200;2024-03-23T14:44:36;9.83;;;1.60;;
35909;SDS011;22004;49.120;-0.200;2024-03-23T14:47:02;9.00;;;1.60;;
35909;SDS011;22004;49.120;-0.200;2024-03-23T14:49:27;9.18;;;1.85;;
35909;SDS011;22004;49.120;-0.200;2024-03-23T14:51:52;11.23;;;1.40;;
35909;SDS011;22004;49.120;-0.200;2024-03-23T14:54:17;5.10;;;1.00;;
35909;SDS011;22004;49.120;-0.200;2024-03-23T14:56:43;6.03;;;1.33;;
35909;SDS011;22004;49.120;-0.200;2024-03-23T14:59:08;8.37;;;1.20;;
35909;SDS011;22004;49.120;-0.200;2024-03-23T15:01:34;4.82;;;1.27;;
35909;SDS011;22004;49.120;-0.200;2024-03-23T15:03:59;6.22;;;1.23;;
35909;SDS011;22004;49.120;-0.200;2024-03-23T15:06:24;7.35;;;1.50;;
35909;SDS011;22004;49.120;-0.200;2024-03-23T15:08:50;8.83;;;1.70;;
35909;SDS011;22004;49.120;-0.200;2024-03-23T15:11:15;5.97;;;0.93;;
35909;SDS011;22004;49.120;-0.200;2024-03-23T15:13:43;7.65;;;1.90;;
35909;SDS011;22004;49.120;-0.200;2024-03-23T15:16:09;2.77;;;1.20;;
35909;SDS011;22004;49.120;-0.200;2024-03-23T15:18:34;8.25;;;1.58;;
35909;SDS011;22004;49.120;-0.200;2024-03-23T15:21:01;7.43;;;1.55;;
35909;SDS011;22004;49.120;-0.200;2024-03-23T15:23:27;4.93;;;1.17;;
35909;SDS011;22004;49.120;-0.200;2024-03-23T15:25:56;4.93;;;1.08;;